EDDB

Berlin-Schönefeld International Airport

Berlin, Germany
TAF EDDB 201700Z 2018/2118 22009KT CAVOK BECMG 2018/2020 27004KT BECMG 2105/2107 31010KT
Issued Valid From Valid To
Apr-20 @ 17:00 UTC
(an hour ago)
Apr-20 @ 18:00 UTC
(26 minutes ago)
Apr-21 @ 18:00 UTC
(in 24 hours)
Apr-20 @ 18:00 to Apr-21 @ 18:00
TAF EDDB 201700Z 2018/2118 22009KT CAVOK
Wind Visibility Clouds Conditions
220° at 9 knots 10,000+ meters
  • No significant clouds
Becoming Apr-20 @ 18:00 to Apr-21 @ 05:00
BECMG 2018/2020 27004KT
Wind Visibility Clouds Conditions
270° at 4 knots 10,000+ meters
  • No significant clouds
Becoming Apr-21 @ 05:00 to Apr-21 @ 18:00
BECMG 2105/2107 31010KT
Wind Visibility Clouds Conditions
310° at 10 knots 10,000+ meters
  • No significant clouds
TAF EDDB 201700Z 2018/2118 22009KT CAVOK BECMG 2018/2020 27004KT BECMG 2105/2107 31010KT
Issued Apr-20 @ 17:00 UTC
(an hour ago)
Valid From Apr-20 @ 18:00 UTC
(26 minutes ago)
Valid To Apr-21 @ 18:00 UTC
(in 24 hours)
Apr-20 @ 18:00 - Apr-21 @ 18:00
Wind Visibility
220° at 9 knots 10,000+ meters
Clouds
  • No significant clouds
Conditions
Becoming Apr-20 @ 18:00 - Apr-21 @ 05:00
Wind Visibility
270° at 4 knots 10,000+ meters
Clouds
  • No significant clouds
Conditions
Becoming Apr-21 @ 05:00 - Apr-21 @ 18:00
Wind Visibility
310° at 10 knots 10,000+ meters
Clouds
  • No significant clouds
Conditions